KCRW

Yeager Airport

Charleston, West Virginia, USA
METAR KCRW 220954Z 15004KT 6SM BR FEW000 BKN019 BKN100 19/19 A3008 RMK AO2 SLP176 FG FEW000 T01940189
Observed Flight Rules
May-22 @ 09:54 UTC (18 minutes ago) Marginal Visual Flight Rules
Wind Visibility Clouds Conditions
150° at 4 knots 6 miles
  • Few
  • Broken at 1,900' AGL
  • Broken at 10,000' AGL
  • Mist
Temperatures Readings
Current 19°C / 66°F
Dewpoint 19°C / 66°F
Humidity 100%
Altimeter 30.08" Hg
Pressure 1017.6 hPa
Elevation 309
METAR KCRW 220954Z 15004KT 6SM BR FEW000 BKN019 BKN100 19/19 A3008 RMK AO2 SLP176 FG FEW000 T01940189
Observed Flight Rules
May-22 @ 09:54 UTC
(18 minutes ago)
MVFR
Wind Visibility
150° at 4 knots 6 miles
Clouds
  • Few
  • Broken at 1,900' AGL
  • Broken at 10,000' AGL
Conditions
  • Mist
Temperature Dewpoint
19°C / 66°F 19°C / 66°F
Humidity Altimeter Pressure
100% 30.08" Hg 1017.6 hPa